createdAt,value
2018-07-08T00:00:13.371Z,99.90
2018-07-08T00:03:11.028Z,99.90
2018-07-08T00:06:08.871Z,99.90
2018-07-08T00:09:06.693Z,99.90
2018-07-08T00:12:04.496Z,99.90
2018-07-08T00:15:02.278Z,99.90
2018-07-08T00:18:00.090Z,99.90
2018-07-08T00:20:58.887Z,99.90
2018-07-08T00:23:56.813Z,99.90
2018-07-08T00:26:54.713Z,99.90
2018-07-08T00:29:52.763Z,99.90
2018-07-08T00:32:50.731Z,99.90
2018-07-08T00:35:48.807Z,99.90
2018-07-08T00:38:46.455Z,99.90
2018-07-08T00:41:44.013Z,99.90
2018-07-08T00:44:41.713Z,99.90
2018-07-08T00:47:39.670Z,99.90
2018-07-08T00:50:37.299Z,99.90
2018-07-08T00:53:34.869Z,99.90
2018-07-08T00:56:32.495Z,99.90
2018-07-08T00:59:33.366Z,99.90
2018-07-08T01:02:31.193Z,99.90
2018-07-08T01:05:29.343Z,99.90
2018-07-08T01:08:27.211Z,99.90
2018-07-08T01:11:24.941Z,99.90
2018-07-08T01:14:22.659Z,99.90
2018-07-08T01:17:20.403Z,99.90
2018-07-08T01:20:19.603Z,99.90
2018-07-08T01:23:17.385Z,99.90
2018-07-08T01:26:31.422Z,99.90
2018-07-08T01:29:29.264Z,99.90
2018-07-08T01:32:27.231Z,99.90
2018-07-08T01:35:25.109Z,99.90
2018-07-08T01:38:22.809Z,99.90
2018-07-08T01:41:20.446Z,99.90
2018-07-08T01:44:18.472Z,99.90
2018-07-08T01:47:16.125Z,99.90
2018-07-08T01:50:14.301Z,99.90
2018-07-08T01:53:12.198Z,99.90
2018-07-08T01:56:10.370Z,99.90
2018-07-08T01:59:08.256Z,99.90
2018-07-08T02:02:06.011Z,99.90
2018-07-08T02:05:04.148Z,99.70
2018-07-08T02:08:01.556Z,99.70
2018-07-08T02:10:59.312Z,99.70
2018-07-08T02:13:57.080Z,99.30
2018-07-08T02:16:54.955Z,99.40
2018-07-08T02:19:52.846Z,99.10
2018-07-08T02:22:50.549Z,99.00
2018-07-08T02:25:49.299Z,98.80
2018-07-08T02:28:46.982Z,98.70
2018-07-08T02:31:44.673Z,98.80
2018-07-08T02:34:41.956Z,98.80
2018-07-08T02:37:39.801Z,98.70
2018-07-08T02:40:38.037Z,98.80
2018-07-08T02:43:35.202Z,98.80
2018-07-08T02:46:33.414Z,98.50
2018-07-08T02:49:32.270Z,98.50
2018-07-08T02:52:29.452Z,98.50
2018-07-08T02:55:27.345Z,98.40
2018-07-08T02:58:25.190Z,98.20
2018-07-08T03:01:23.966Z,98.20
2018-07-08T03:04:21.867Z,98.20
2018-07-08T03:07:19.440Z,98.10
2018-07-08T03:10:17.350Z,98.00
2018-07-08T03:13:15.162Z,98.00
2018-07-08T03:16:12.985Z,98.10
2018-07-08T03:19:10.862Z,97.90
2018-07-08T03:22:08.825Z,98.00
2018-07-08T03:25:06.626Z,98.00
2018-07-08T03:28:04.610Z,97.80
2018-07-08T03:31:01.967Z,97.70
2018-07-08T03:34:00.128Z,97.60
2018-07-08T03:36:58.054Z,97.50
2018-07-08T03:39:56.080Z,97.70
2018-07-08T03:42:54.324Z,97.30
2018-07-08T03:45:51.500Z,97.50
2018-07-08T03:48:49.608Z,97.30
2018-07-08T03:51:47.900Z,97.30
2018-07-08T03:54:47.869Z,97.20
2018-07-08T03:57:45.744Z,97.20
2018-07-08T04:00:43.342Z,97.40
2018-07-08T04:03:40.657Z,97.30
2018-07-08T04:06:38.560Z,97.20
2018-07-08T04:09:36.523Z,97.10
2018-07-08T04:12:34.405Z,97.10
2018-07-08T04:15:32.141Z,97.10
2018-07-08T04:18:29.988Z,96.80
2018-07-08T04:21:27.967Z,96.70
2018-07-08T04:24:25.790Z,97.00
2018-07-08T04:27:23.473Z,97.00
2018-07-08T04:30:21.399Z,96.80
2018-07-08T04:33:19.237Z,96.40
2018-07-08T04:36:17.018Z,96.40
2018-07-08T04:39:15.925Z,96.60
2018-07-08T04:42:13.653Z,96.50
2018-07-08T04:45:12.505Z,96.60
2018-07-08T04:48:11.359Z,96.60
2018-07-08T04:51:09.108Z,96.60
2018-07-08T04:54:06.923Z,96.50
2018-07-08T04:57:04.874Z,96.50
2018-07-08T05:00:02.723Z,96.90
2018-07-08T05:03:00.839Z,96.70
2018-07-08T05:05:58.590Z,96.70
2018-07-08T05:08:56.365Z,96.70
2018-07-08T05:11:54.410Z,96.80
2018-07-08T05:14:52.183Z,96.60
2018-07-08T05:17:50.146Z,96.40
2018-07-08T05:20:47.790Z,96.30
2018-07-08T05:23:45.500Z,96.40
2018-07-08T05:26:43.482Z,96.10
2018-07-08T05:29:41.083Z,96.10
2018-07-08T05:32:38.958Z,96.00
2018-07-08T05:35:37.060Z,96.10
2018-07-08T05:38:34.673Z,96.20
2018-07-08T05:41:32.506Z,95.90
2018-07-08T05:44:30.502Z,95.90
2018-07-08T05:47:28.395Z,96.00
2018-07-08T05:50:27.501Z,95.70
2018-07-08T05:53:25.523Z,96.00
2018-07-08T05:59:14.246Z,95.70
2018-07-08T06:02:12.122Z,95.70
2018-07-08T06:05:10.097Z,95.70
2018-07-08T06:08:07.815Z,95.40
2018-07-08T06:11:05.660Z,95.30
2018-07-08T06:16:53.512Z,95.10
2018-07-08T06:19:51.360Z,95.00
2018-07-08T06:22:49.376Z,94.80
2018-07-08T06:25:47.307Z,94.70
2018-07-08T06:28:45.025Z,94.60
2018-07-08T06:31:43.580Z,94.50
2018-07-08T06:34:41.295Z,94.40
2018-07-08T06:37:39.232Z,94.10
2018-07-08T06:40:37.105Z,93.80
2018-07-08T06:43:34.939Z,93.80
2018-07-08T06:46:32.186Z,93.40
2018-07-08T06:49:30.283Z,93.40
2018-07-08T06:52:28.089Z,93.40
2018-07-08T06:55:26.033Z,93.60
2018-07-08T06:58:23.974Z,93.30
2018-07-08T07:01:21.675Z,93.20
2018-07-08T07:04:18.867Z,92.40
2018-07-08T07:07:16.828Z,90.20
2018-07-08T07:10:14.705Z,85.90
2018-07-08T07:13:12.586Z,83.00
2018-07-08T07:16:10.373Z,82.00
2018-07-08T07:19:07.925Z,80.50
2018-07-08T07:22:05.873Z,79.20
2018-07-08T07:25:03.670Z,76.60
2018-07-08T07:28:01.514Z,76.50
2018-07-08T07:30:59.439Z,74.80
2018-07-08T07:33:57.556Z,75.60
2018-07-08T07:36:56.361Z,73.70
2018-07-08T07:39:54.135Z,73.80
2018-07-08T07:42:52.100Z,72.40
2018-07-08T07:45:58.056Z,69.90
2018-07-08T07:48:55.927Z,68.80
2018-07-08T07:51:53.782Z,68.60
2018-07-08T07:54:51.592Z,69.40
2018-07-08T07:57:49.393Z,70.50
2018-07-08T08:00:47.342Z,70.50
2018-07-08T08:03:46.349Z,69.30
2018-07-08T08:06:44.330Z,68.70
2018-07-08T08:09:42.293Z,67.70
2018-07-08T08:12:40.344Z,67.40
2018-07-08T08:15:38.332Z,66.80
2018-07-08T08:18:36.205Z,66.40
2018-07-08T08:21:34.292Z,63.10
2018-07-08T08:24:32.044Z,64.20
2018-07-08T08:27:30.019Z,64.80
2018-07-08T08:30:27.789Z,64.00
2018-07-08T08:33:25.598Z,63.20
2018-07-08T08:36:23.411Z,62.20
2018-07-08T08:39:22.053Z,64.50
2018-07-08T08:42:19.900Z,63.20
2018-07-08T08:45:18.696Z,60.90
2018-07-08T08:48:16.743Z,60.20
2018-07-08T08:51:14.742Z,58.80
2018-07-08T08:54:12.481Z,58.20
2018-07-08T08:57:10.425Z,58.10
2018-07-08T09:00:08.271Z,57.50
2018-07-08T09:03:05.976Z,57.00
2018-07-08T09:06:03.884Z,57.40
2018-07-08T09:09:01.675Z,57.90
2018-07-08T09:11:59.607Z,59.00
2018-07-08T09:14:57.842Z,57.90
2018-07-08T09:17:55.947Z,56.70
2018-07-08T09:20:53.907Z,57.30
2018-07-08T09:23:52.144Z,57.10
2018-07-08T09:26:49.966Z,55.90
2018-07-08T09:29:47.893Z,56.50
2018-07-08T09:32:45.092Z,56.30
2018-07-08T09:35:43.252Z,57.90
2018-07-08T09:38:40.448Z,56.80
2018-07-08T09:41:37.906Z,56.00
2018-07-08T09:44:35.836Z,54.20
2018-07-08T09:47:32.981Z,53.80
2018-07-08T09:50:30.220Z,53.40
2018-07-08T09:53:28.133Z,53.90
2018-07-08T09:56:26.205Z,53.10
2018-07-08T09:59:24.298Z,53.00
2018-07-08T10:05:12.457Z,54.30
2018-07-08T10:08:10.157Z,53.50
2018-07-08T10:11:07.943Z,53.30
2018-07-08T10:14:05.944Z,52.20
2018-07-08T10:17:03.744Z,51.70
2018-07-08T10:20:02.689Z,51.40
2018-07-08T10:23:00.634Z,50.10
2018-07-08T10:25:58.575Z,50.30
2018-07-08T10:28:56.619Z,51.10
2018-07-08T10:32:03.195Z,51.10
2018-07-08T10:35:01.319Z,51.20
2018-07-08T10:37:59.115Z,51.60
2018-07-08T10:40:57.107Z,50.90
2018-07-08T10:43:54.829Z,50.10
2018-07-08T10:46:52.770Z,50.50
2018-07-08T10:49:50.354Z,51.50
2018-07-08T10:52:48.071Z,51.00
2018-07-08T10:55:45.812Z,50.20
2018-07-08T10:58:43.661Z,50.70
2018-07-08T11:01:41.621Z,50.90
2018-07-08T11:04:39.372Z,50.80
2018-07-08T11:07:37.126Z,49.70
2018-07-08T11:10:35.982Z,51.20
2018-07-08T11:13:33.816Z,50.40
2018-07-08T11:16:31.610Z,50.10
2018-07-08T11:19:29.625Z,50.10
2018-07-08T11:22:27.421Z,50.20
2018-07-08T11:25:26.229Z,52.10
2018-07-08T11:28:24.170Z,51.80
2018-07-08T11:31:22.127Z,50.70
2018-07-08T11:34:20.152Z,48.70
2018-07-08T11:37:18.062Z,48.70
2018-07-08T11:40:16.129Z,48.30
2018-07-08T11:43:14.101Z,48.00
2018-07-08T11:46:12.110Z,48.00
2018-07-08T11:49:09.375Z,49.00
2018-07-08T11:52:07.192Z,48.90
2018-07-08T11:55:05.090Z,49.50
2018-07-08T11:58:02.755Z,49.70
2018-07-08T12:01:01.819Z,49.80
2018-07-08T12:04:00.022Z,50.70
2018-07-08T12:06:57.887Z,49.90
2018-07-08T12:09:55.840Z,48.80
2018-07-08T12:12:53.407Z,48.80
2018-07-08T12:15:52.104Z,47.90
2018-07-08T12:18:49.948Z,48.80
2018-07-08T12:21:47.637Z,48.90
2018-07-08T12:24:45.584Z,49.90
2018-07-08T12:27:43.642Z,50.20
2018-07-08T12:30:41.479Z,50.90
2018-07-08T12:33:39.340Z,49.90
2018-07-08T12:36:37.159Z,49.80
2018-07-08T12:39:35.999Z,50.50
2018-07-08T12:42:33.781Z,50.10
2018-07-08T12:45:31.919Z,49.10
2018-07-08T12:48:29.754Z,49.60
2018-07-08T12:51:27.598Z,48.20
2018-07-08T12:54:25.536Z,48.60
2018-07-08T12:57:23.461Z,47.80
2018-07-08T13:00:21.248Z,46.90
2018-07-08T13:03:20.078Z,47.80
2018-07-08T13:06:17.805Z,48.80
2018-07-08T13:09:16.770Z,47.80
2018-07-08T13:12:14.550Z,46.40
2018-07-08T13:15:12.509Z,45.90
2018-07-08T13:18:10.271Z,46.60
2018-07-08T13:21:08.077Z,46.40
2018-07-08T13:24:05.866Z,46.20
2018-07-08T13:27:03.644Z,45.90
2018-07-08T13:30:01.328Z,46.30
2018-07-08T13:32:59.094Z,46.50
2018-07-08T13:35:56.788Z,46.20
2018-07-08T13:38:54.643Z,45.70
2018-07-08T13:41:52.410Z,45.00
2018-07-08T13:44:50.270Z,45.70
2018-07-08T14:07:09.249Z,45.40
2018-07-08T14:10:07.140Z,45.80
2018-07-08T14:13:05.690Z,46.30
2018-07-08T14:16:03.730Z,46.90
2018-07-08T14:19:01.522Z,46.90
2018-07-08T14:21:59.348Z,47.30
2018-07-08T14:24:57.248Z,47.10
2018-07-08T14:27:55.210Z,47.10
2018-07-08T14:30:53.542Z,48.20
2018-07-08T14:33:51.527Z,47.70
2018-07-08T14:36:49.571Z,46.80
2018-07-08T14:39:47.310Z,46.90
2018-07-08T14:42:45.188Z,47.30
2018-07-08T14:45:43.236Z,46.70
2018-07-08T14:48:40.915Z,46.40
2018-07-08T14:51:38.950Z,46.30
2018-07-08T14:54:36.783Z,46.20
2018-07-08T14:57:34.848Z,46.20
2018-07-08T15:00:32.814Z,46.40
2018-07-08T15:03:30.782Z,46.30
2018-07-08T15:09:21.546Z,47.10
2018-07-08T15:12:19.435Z,46.70
2018-07-08T15:15:16.722Z,46.50
2018-07-08T15:18:14.834Z,46.00
2018-07-08T15:21:12.204Z,47.00
2018-07-08T15:24:10.212Z,46.90
2018-07-08T15:27:07.390Z,47.40
2018-07-08T15:30:05.426Z,47.40
2018-07-08T15:33:03.750Z,47.50
2018-07-08T15:36:01.778Z,47.50
2018-07-08T15:38:59.789Z,48.00
2018-07-08T15:41:57.335Z,48.30
2018-07-08T15:44:55.391Z,48.40
2018-07-08T15:47:54.560Z,48.40
2018-07-08T15:50:52.706Z,48.70
2018-07-08T15:53:50.856Z,48.60
2018-07-08T15:56:50.019Z,48.90
2018-07-08T15:59:47.358Z,49.00
2018-07-08T16:02:44.613Z,49.10
2018-07-08T16:05:42.472Z,49.00
2018-07-08T16:08:39.666Z,49.20
2018-07-08T16:11:36.874Z,49.10
2018-07-08T16:14:34.378Z,49.50
2018-07-08T16:17:33.603Z,49.80
2018-07-08T16:20:30.966Z,50.20
2018-07-08T16:23:29.005Z,50.90
2018-07-08T16:26:28.045Z,50.90
2018-07-08T16:29:26.119Z,51.00
2018-07-08T16:32:23.960Z,51.00
2018-07-08T16:35:21.998Z,54.10
2018-07-08T16:38:20.151Z,60.50
2018-07-08T16:41:17.930Z,64.20
2018-07-08T16:44:16.770Z,66.50
2018-07-08T16:47:15.671Z,70.20
2018-07-08T16:50:13.599Z,72.90
2018-07-08T16:53:11.520Z,74.30
2018-07-08T16:56:10.631Z,75.30
2018-07-08T16:59:08.461Z,75.60
2018-07-08T17:02:06.156Z,76.00
2018-07-08T17:05:03.744Z,75.90
2018-07-08T17:08:01.503Z,76.10
2018-07-08T17:10:59.266Z,76.00
2018-07-08T17:13:58.123Z,76.60
2018-07-08T17:19:45.709Z,78.20
2018-07-08T17:22:43.746Z,78.60
2018-07-08T17:25:41.949Z,79.70
2018-07-08T17:28:39.989Z,80.40
2018-07-08T17:31:37.856Z,81.00
2018-07-08T17:34:35.778Z,82.20
2018-07-08T17:37:33.944Z,83.20
2018-07-08T17:40:31.690Z,84.10
2018-07-08T17:43:29.577Z,86.10
2018-07-08T17:46:27.654Z,87.20
2018-07-08T17:49:25.735Z,87.50
2018-07-08T17:52:23.545Z,88.20
2018-07-08T17:55:21.435Z,89.40
2018-07-08T17:58:20.351Z,89.40
2018-07-08T18:01:18.403Z,90.30
2018-07-08T18:04:15.664Z,91.00
2018-07-08T18:07:13.568Z,91.50
2018-07-08T18:10:13.611Z,91.90
2018-07-08T18:13:11.520Z,91.90
2018-07-08T18:16:08.835Z,91.80
2018-07-08T18:19:06.718Z,92.50
2018-07-08T18:22:03.940Z,92.60
2018-07-08T18:25:02.121Z,92.70
2018-07-08T18:28:00.047Z,92.70
2018-07-08T18:30:57.303Z,92.70
2018-07-08T18:33:55.112Z,93.20
2018-07-08T18:36:54.096Z,93.30
2018-07-08T18:39:53.239Z,92.90
2018-07-08T18:42:51.159Z,92.70
2018-07-08T18:45:48.513Z,92.80
2018-07-08T18:48:46.319Z,93.20
2018-07-08T18:51:44.170Z,93.30
2018-07-08T18:54:42.138Z,93.60
2018-07-08T18:57:40.044Z,94.00
2018-07-08T19:00:37.835Z,94.50
2018-07-08T19:03:35.858Z,94.50
2018-07-08T19:06:33.931Z,94.70
2018-07-08T19:09:31.940Z,94.90
2018-07-08T19:12:29.633Z,94.50
2018-07-08T19:15:27.529Z,94.70
2018-07-08T19:18:25.379Z,95.30
2018-07-08T19:21:23.104Z,95.70
2018-07-08T19:24:21.045Z,95.50
2018-07-08T19:27:18.918Z,95.70
2018-07-08T19:33:06.334Z,95.70
2018-07-08T19:36:04.160Z,95.70
2018-07-08T19:39:02.038Z,96.00
2018-07-08T19:42:00.093Z,96.00
2018-07-08T19:44:57.740Z,96.00
2018-07-08T19:47:56.680Z,95.60
2018-07-08T19:50:54.596Z,95.80
2018-07-08T19:53:52.248Z,95.60
2018-07-08T19:56:51.066Z,95.30
2018-07-08T19:59:48.799Z,95.20
2018-07-08T20:02:46.979Z,95.30
2018-07-08T20:05:45.740Z,95.40
